sensor_id;sensor_type;location;lat;lon;timestamp;P1;durP1;ratioP1;P2;durP2;ratioP2
35689;SDS011;26977;44.830;-0.674;2022-11-20T00:01:14;63.83;;;39.53;;
35689;SDS011;26977;44.830;-0.674;2022-11-20T00:03:44;63.42;;;39.30;;
35689;SDS011;26977;44.830;-0.674;2022-11-20T00:06:11;69.90;;;42.50;;
35689;SDS011;26977;44.830;-0.674;2022-11-20T00:08:39;76.25;;;42.33;;
35689;SDS011;26977;44.830;-0.674;2022-11-20T00:11:10;67.30;;;40.88;;
35689;SDS011;26977;44.830;-0.674;2022-11-20T00:13:40;66.03;;;37.30;;
35689;SDS011;26977;44.830;-0.674;2022-11-20T00:16:07;60.50;;;37.30;;
35689;SDS011;26977;44.830;-0.674;2022-11-20T00:18:37;63.42;;;36.53;;
35689;SDS011;26977;44.830;-0.674;2022-11-20T00:21:07;56.00;;;35.88;;
35689;SDS011;26977;44.830;-0.674;2022-11-20T00:23:35;64.80;;;38.20;;
35689;SDS011;26977;44.830;-0.674;2022-11-20T00:26:02;73.60;;;39.05;;
35689;SDS011;26977;44.830;-0.674;2022-11-20T00:28:30;65.00;;;41.78;;
35689;SDS011;26977;44.830;-0.674;2022-11-20T00:31:02;65.95;;;39.00;;
35689;SDS011;26977;44.830;-0.674;2022-11-20T00:33:33;66.15;;;40.60;;
35689;SDS011;26977;44.830;-0.674;2022-11-20T00:36:07;66.22;;;39.38;;
35689;SDS011;26977;44.830;-0.674;2022-11-20T00:38:35;67.28;;;38.80;;
35689;SDS011;26977;44.830;-0.674;2022-11-20T00:41:02;70.28;;;39.72;;
35689;SDS011;26977;44.830;-0.674;2022-11-20T00:43:30;59.88;;;36.83;;
35689;SDS011;26977;44.830;-0.674;2022-11-20T00:45:59;64.88;;;36.25;;
35689;SDS011;26977;44.830;-0.674;2022-11-20T00:48:29;58.13;;;31.67;;
35689;SDS011;26977;44.830;-0.674;2022-11-20T00:50:57;59.97;;;32.53;;
35689;SDS011;26977;44.830;-0.674;2022-11-20T00:53:23;58.45;;;34.63;;
35689;SDS011;26977;44.830;-0.674;2022-11-20T00:55:52;62.85;;;33.17;;
35689;SDS011;26977;44.830;-0.674;2022-11-20T00:58:18;60.20;;;32.70;;
35689;SDS011;26977;44.830;-0.674;2022-11-20T01:00:44;55.40;;;32.17;;
35689;SDS011;26977;44.830;-0.674;2022-11-20T01:03:09;56.20;;;32.20;;
35689;SDS011;26977;44.830;-0.674;2022-11-20T01:05:35;56.25;;;33.03;;
35689;SDS011;26977;44.830;-0.674;2022-11-20T01:08:01;59.13;;;34.35;;
35689;SDS011;26977;44.830;-0.674;2022-11-20T01:10:26;58.97;;;35.97;;
35689;SDS011;26977;44.830;-0.674;2022-11-20T01:12:52;58.70;;;33.42;;
35689;SDS011;26977;44.830;-0.674;2022-11-20T01:15:38;60.58;;;33.22;;
35689;SDS011;26977;44.830;-0.674;2022-11-20T01:18:04;59.42;;;35.42;;
35689;SDS011;26977;44.830;-0.674;2022-11-20T01:20:30;55.05;;;34.90;;
35689;SDS011;26977;44.830;-0.674;2022-11-20T01:23:01;49.65;;;31.65;;
35689;SDS011;26977;44.830;-0.674;2022-11-20T01:25:27;52.50;;;30.80;;
35689;SDS011;26977;44.830;-0.674;2022-11-20T01:27:53;54.55;;;30.98;;
35689;SDS011;26977;44.830;-0.674;2022-11-20T01:30:19;51.50;;;32.28;;
35689;SDS011;26977;44.830;-0.674;2022-11-20T01:32:47;55.58;;;31.42;;
35689;SDS011;26977;44.830;-0.674;2022-11-20T01:35:13;53.38;;;32.75;;
35689;SDS011;26977;44.830;-0.674;2022-11-20T01:37:38;49.20;;;30.15;;
35689;SDS011;26977;44.830;-0.674;2022-11-20T01:40:04;43.67;;;26.45;;
35689;SDS011;26977;44.830;-0.674;2022-11-20T01:42:31;52.83;;;26.73;;
35689;SDS011;26977;44.830;-0.674;2022-11-20T01:48:12;35.75;;;22.00;;
35689;SDS011;26977;44.830;-0.674;2022-11-20T01:50:38;35.92;;;19.20;;
35689;SDS011;26977;44.830;-0.674;2022-11-20T01:53:06;37.88;;;19.60;;
35689;SDS011;26977;44.830;-0.674;2022-11-20T01:55:36;32.85;;;18.17;;
35689;SDS011;26977;44.830;-0.674;2022-11-20T01:58:08;34.88;;;17.25;;
35689;SDS011;26977;44.830;-0.674;2022-11-20T02:00:34;32.85;;;18.30;;
35689;SDS011;26977;44.830;-0.674;2022-11-20T02:03:01;29.67;;;16.50;;
35689;SDS011;26977;44.830;-0.674;2022-11-20T02:05:35;31.95;;;16.95;;
35689;SDS011;26977;44.830;-0.674;2022-11-20T02:08:06;35.40;;;16.55;;
35689;SDS011;26977;44.830;-0.674;2022-11-20T02:10:32;39.42;;;18.77;;
35689;SDS011;26977;44.830;-0.674;2022-11-20T02:12:58;36.35;;;19.08;;
35689;SDS011;26977;44.830;-0.674;2022-11-20T02:15:44;38.75;;;19.50;;
35689;SDS011;26977;44.830;-0.674;2022-11-20T02:18:11;33.08;;;19.48;;
35689;SDS011;26977;44.830;-0.674;2022-11-20T02:20:44;36.70;;;20.70;;
35689;SDS011;26977;44.830;-0.674;2022-11-20T02:23:12;37.67;;;21.30;;
35689;SDS011;26977;44.830;-0.674;2022-11-20T02:26:00;39.08;;;21.55;;
35689;SDS011;26977;44.830;-0.674;2022-11-20T02:28:29;36.63;;;18.88;;
35689;SDS011;26977;44.830;-0.674;2022-11-20T02:30:57;34.65;;;17.73;;
35689;SDS011;26977;44.830;-0.674;2022-11-20T02:33:23;36.97;;;17.83;;
35689;SDS011;26977;44.830;-0.674;2022-11-20T02:35:48;31.05;;;17.38;;
35689;SDS011;26977;44.830;-0.674;2022-11-20T02:38:16;29.85;;;15.40;;
35689;SDS011;26977;44.830;-0.674;2022-11-20T02:40:43;27.17;;;14.68;;
35689;SDS011;26977;44.830;-0.674;2022-11-20T02:43:09;29.83;;;15.38;;
35689;SDS011;26977;44.830;-0.674;2022-11-20T02:45:35;28.30;;;15.48;;
35689;SDS011;26977;44.830;-0.674;2022-11-20T02:48:01;30.25;;;15.75;;
35689;SDS011;26977;44.830;-0.674;2022-11-20T02:50:26;25.27;;;13.80;;
35689;SDS011;26977;44.830;-0.674;2022-11-20T02:52:52;24.80;;;13.10;;
35689;SDS011;26977;44.830;-0.674;2022-11-20T02:55:30;22.30;;;11.98;;
35689;SDS011;26977;44.830;-0.674;2022-11-20T02:57:56;23.52;;;11.35;;
35689;SDS011;26977;44.830;-0.674;2022-11-20T03:00:21;22.05;;;10.52;;
35689;SDS011;26977;44.830;-0.674;2022-11-20T03:02:49;21.77;;;9.52;;
35689;SDS011;26977;44.830;-0.674;2022-11-20T03:05:15;15.60;;;8.65;;
35689;SDS011;26977;44.830;-0.674;2022-11-20T03:07:41;16.15;;;7.50;;
35689;SDS011;26977;44.830;-0.674;2022-11-20T03:10:10;13.75;;;6.45;;
35689;SDS011;26977;44.830;-0.674;2022-11-20T03:12:36;17.35;;;6.90;;
35689;SDS011;26977;44.830;-0.674;2022-11-20T03:15:02;12.93;;;5.30;;
35689;SDS011;26977;44.830;-0.674;2022-11-20T03:17:28;13.77;;;4.70;;
35689;SDS011;26977;44.830;-0.674;2022-11-20T03:19:54;13.38;;;3.80;;
35689;SDS011;26977;44.830;-0.674;2022-11-20T03:22:20;7.95;;;3.17;;
35689;SDS011;26977;44.830;-0.674;2022-11-20T03:24:45;10.35;;;2.92;;
35689;SDS011;26977;44.830;-0.674;2022-11-20T03:27:11;9.70;;;3.15;;
35689;SDS011;26977;44.830;-0.674;2022-11-20T03:29:50;9.40;;;2.90;;
35689;SDS011;26977;44.830;-0.674;2022-11-20T03:32:15;8.82;;;2.88;;
35689;SDS011;26977;44.830;-0.674;2022-11-20T03:34:51;11.85;;;2.63;;
35689;SDS011;26977;44.830;-0.674;2022-11-20T03:37:17;10.15;;;2.58;;
35689;SDS011;26977;44.830;-0.674;2022-11-20T03:39:43;9.80;;;2.85;;
35689;SDS011;26977;44.830;-0.674;2022-11-20T03:42:08;11.35;;;2.53;;
35689;SDS011;26977;44.830;-0.674;2022-11-20T03:44:54;9.20;;;2.25;;
35689;SDS011;26977;44.830;-0.674;2022-11-20T03:47:22;11.07;;;2.80;;
35689;SDS011;26977;44.830;-0.674;2022-11-20T03:49:48;8.02;;;2.80;;
35689;SDS011;26977;44.830;-0.674;2022-11-20T03:52:14;13.65;;;3.25;;
35689;SDS011;26977;44.830;-0.674;2022-11-20T03:54:40;11.00;;;2.88;;
35689;SDS011;26977;44.830;-0.674;2022-11-20T03:57:06;9.82;;;2.38;;
35689;SDS011;26977;44.830;-0.674;2022-11-20T03:59:31;10.38;;;2.38;;
35689;SDS011;26977;44.830;-0.674;2022-11-20T04:01:57;12.05;;;2.30;;
35689;SDS011;26977;44.830;-0.674;2022-11-20T04:04:23;15.55;;;3.15;;
35689;SDS011;26977;44.830;-0.674;2022-11-20T04:06:49;6.95;;;2.33;;
35689;SDS011;26977;44.830;-0.674;2022-11-20T04:09:14;6.88;;;2.30;;
35689;SDS011;26977;44.830;-0.674;2022-11-20T04:11:40;11.63;;;2.25;;
35689;SDS011;26977;44.830;-0.674;2022-11-20T04:14:11;11.27;;;2.42;;
35689;SDS011;26977;44.830;-0.674;2022-11-20T04:16:39;11.75;;;2.13;;
35689;SDS011;26977;44.830;-0.674;2022-11-20T04:19:08;9.20;;;2.47;;
35689;SDS011;26977;44.830;-0.674;2022-11-20T04:21:36;10.30;;;2.33;;
35689;SDS011;26977;44.830;-0.674;2022-11-20T04:24:15;11.20;;;2.33;;
35689;SDS011;26977;44.830;-0.674;2022-11-20T04:26:41;9.15;;;2.15;;
35689;SDS011;26977;44.830;-0.674;2022-11-20T04:29:09;10.02;;;2.10;;
35689;SDS011;26977;44.830;-0.674;2022-11-20T04:31:43;11.65;;;2.22;;
35689;SDS011;26977;44.830;-0.674;2022-11-20T04:34:10;6.38;;;1.98;;
35689;SDS011;26977;44.830;-0.674;2022-11-20T04:36:36;8.45;;;1.90;;
35689;SDS011;26977;44.830;-0.674;2022-11-20T04:39:03;5.55;;;1.85;;
35689;SDS011;26977;44.830;-0.674;2022-11-20T04:41:31;7.88;;;2.20;;
35689;SDS011;26977;44.830;-0.674;2022-11-20T04:43:59;5.65;;;1.90;;
35689;SDS011;26977;44.830;-0.674;2022-11-20T04:46:28;6.88;;;2.05;;
35689;SDS011;26977;44.830;-0.674;2022-11-20T04:48:55;7.25;;;2.22;;
35689;SDS011;26977;44.830;-0.674;2022-11-20T04:51:21;10.55;;;2.40;;
35689;SDS011;26977;44.830;-0.674;2022-11-20T04:53:47;7.10;;;2.42;;
35689;SDS011;26977;44.830;-0.674;2022-11-20T04:56:13;9.82;;;2.30;;
35689;SDS011;26977;44.830;-0.674;2022-11-20T04:58:39;7.50;;;2.35;;
35689;SDS011;26977;44.830;-0.674;2022-11-20T05:01:06;8.05;;;1.80;;
35689;SDS011;26977;44.830;-0.674;2022-11-20T05:03:35;5.07;;;1.65;;
35689;SDS011;26977;44.830;-0.674;2022-11-20T05:06:04;5.90;;;1.63;;
35689;SDS011;26977;44.830;-0.674;2022-11-20T05:08:31;6.22;;;2.03;;
35689;SDS011;26977;44.830;-0.674;2022-11-20T05:10:59;6.10;;;1.98;;
35689;SDS011;26977;44.830;-0.674;2022-11-20T05:13:45;9.68;;;1.95;;
35689;SDS011;26977;44.830;-0.674;2022-11-20T05:16:12;6.45;;;1.90;;
35689;SDS011;26977;44.830;-0.674;2022-11-20T05:18:40;5.32;;;1.67;;
35689;SDS011;26977;44.830;-0.674;2022-11-20T05:21:06;10.18;;;2.20;;
35689;SDS011;26977;44.830;-0.674;2022-11-20T05:23:33;10.43;;;1.70;;
35689;SDS011;26977;44.830;-0.674;2022-11-20T05:25:59;12.48;;;2.67;;
35689;SDS011;26977;44.830;-0.674;2022-11-20T05:28:26;8.05;;;1.75;;
35689;SDS011;26977;44.830;-0.674;2022-11-20T05:30:54;12.80;;;2.00;;
35689;SDS011;26977;44.830;-0.674;2022-11-20T05:33:19;7.15;;;1.58;;
35689;SDS011;26977;44.830;-0.674;2022-11-20T05:35:45;7.68;;;1.70;;
35689;SDS011;26977;44.830;-0.674;2022-11-20T05:38:24;7.30;;;1.65;;
35689;SDS011;26977;44.830;-0.674;2022-11-20T05:40:50;4.18;;;1.70;;
35689;SDS011;26977;44.830;-0.674;2022-11-20T05:43:15;8.85;;;2.03;;
35689;SDS011;26977;44.830;-0.674;2022-11-20T05:45:53;9.65;;;2.10;;
35689;SDS011;26977;44.830;-0.674;2022-11-20T05:48:22;8.32;;;2.35;;
35689;SDS011;26977;44.830;-0.674;2022-11-20T05:50:50;13.02;;;2.25;;
35689;SDS011;26977;44.830;-0.674;2022-11-20T05:53:15;8.60;;;1.85;;
35689;SDS011;26977;44.830;-0.674;2022-11-20T05:55:41;7.97;;;2.33;;
35689;SDS011;26977;44.830;-0.674;2022-11-20T05:58:07;7.20;;;2.20;;
35689;SDS011;26977;44.830;-0.674;2022-11-20T06:00:33;8.30;;;2.10;;
35689;SDS011;26977;44.830;-0.674;2022-11-20T06:03:01;6.35;;;2.00;;
35689;SDS011;26977;44.830;-0.674;2022-11-20T06:05:27;4.63;;;2.08;;
35689;SDS011;26977;44.830;-0.674;2022-11-20T06:07:53;7.82;;;2.47;;
35689;SDS011;26977;44.830;-0.674;2022-11-20T06:10:21;7.55;;;2.13;;
35689;SDS011;26977;44.830;-0.674;2022-11-20T06:12:47;10.23;;;2.03;;
35689;SDS011;26977;44.830;-0.674;2022-11-20T06:15:12;13.40;;;2.60;;
35689;SDS011;26977;44.830;-0.674;2022-11-20T06:17:38;8.15;;;2.40;;
35689;SDS011;26977;44.830;-0.674;2022-11-20T06:20:07;5.72;;;1.90;;
35689;SDS011;26977;44.830;-0.674;2022-11-20T06:22:33;6.72;;;2.10;;
35689;SDS011;26977;44.830;-0.674;2022-11-20T06:24:59;5.35;;;2.33;;
35689;SDS011;26977;44.830;-0.674;2022-11-20T06:27:25;11.88;;;2.83;;
35689;SDS011;26977;44.830;-0.674;2022-11-20T06:29:50;10.07;;;2.55;;
35689;SDS011;26977;44.830;-0.674;2022-11-20T06:32:16;8.57;;;2.50;;
35689;SDS011;26977;44.830;-0.674;2022-11-20T06:34:41;14.45;;;3.38;;
35689;SDS011;26977;44.830;-0.674;2022-11-20T06:37:07;5.20;;;2.22;;
35689;SDS011;26977;44.830;-0.674;2022-11-20T06:39:33;9.48;;;2.60;;
35689;SDS011;26977;44.830;-0.674;2022-11-20T06:41:59;13.95;;;2.60;;
35689;SDS011;26977;44.830;-0.674;2022-11-20T06:44:35;7.88;;;2.58;;
35689;SDS011;26977;44.830;-0.674;2022-11-20T06:47:01;5.60;;;2.85;;
35689;SDS011;26977;44.830;-0.674;2022-11-20T06:49:37;10.35;;;2.85;;
35689;SDS011;26977;44.830;-0.674;2022-11-20T06:52:03;6.43;;;2.55;;
35689;SDS011;26977;44.830;-0.674;2022-11-20T06:54:29;11.27;;;2.72;;
35689;SDS011;26977;44.830;-0.674;2022-11-20T06:56:55;8.65;;;2.75;;
35689;SDS011;26977;44.830;-0.674;2022-11-20T06:59:21;8.23;;;2.40;;
35689;SDS011;26977;44.830;-0.674;2022-11-20T07:01:46;12.00;;;2.50;;
35689;SDS011;26977;44.830;-0.674;2022-11-20T07:04:12;6.60;;;2.20;;
35689;SDS011;26977;44.830;-0.674;2022-11-20T07:06:38;6.40;;;2.30;;
35689;SDS011;26977;44.830;-0.674;2022-11-20T07:09:14;7.65;;;2.65;;
35689;SDS011;26977;44.830;-0.674;2022-11-20T07:11:53;10.15;;;2.30;;
35689;SDS011;26977;44.830;-0.674;2022-11-20T07:14:19;5.15;;;2.40;;
35689;SDS011;26977;44.830;-0.674;2022-11-20T07:16:44;10.27;;;2.50;;
35689;SDS011;26977;44.830;-0.674;2022-11-20T07:19:10;9.43;;;2.42;;
35689;SDS011;26977;44.830;-0.674;2022-11-20T07:21:38;8.05;;;2.30;;
35689;SDS011;26977;44.830;-0.674;2022-11-20T07:24:04;7.05;;;2.55;;
35689;SDS011;26977;44.830;-0.674;2022-11-20T07:26:30;6.78;;;1.90;;
35689;SDS011;26977;44.830;-0.674;2022-11-20T07:28:55;5.70;;;2.00;;
35689;SDS011;26977;44.830;-0.674;2022-11-20T07:31:21;5.38;;;1.92;;
35689;SDS011;26977;44.830;-0.674;2022-11-20T07:33:49;8.65;;;2.28;;
35689;SDS011;26977;44.830;-0.674;2022-11-20T07:36:15;8.27;;;2.03;;
35689;SDS011;26977;44.830;-0.674;2022-11-20T07:38:41;11.77;;;2.60;;
35689;SDS011;26977;44.830;-0.674;2022-11-20T07:41:07;4.80;;;1.80;;
35689;SDS011;26977;44.830;-0.674;2022-11-20T07:43:35;8.48;;;1.95;;
35689;SDS011;26977;44.830;-0.674;2022-11-20T07:46:00;6.95;;;1.90;;
35689;SDS011;26977;44.830;-0.674;2022-11-20T07:48:37;8.65;;;2.25;;
35689;SDS011;26977;44.830;-0.674;2022-11-20T07:51:03;6.88;;;1.80;;
35689;SDS011;26977;44.830;-0.674;2022-11-20T07:53:31;7.63;;;2.03;;
35689;SDS011;26977;44.830;-0.674;2022-11-20T07:56:01;5.75;;;1.98;;
35689;SDS011;26977;44.830;-0.674;2022-11-20T07:58:28;8.77;;;2.20;;
35689;SDS011;26977;44.830;-0.674;2022-11-20T08:01:07;8.73;;;2.10;;
35689;SDS011;26977;44.830;-0.674;2022-11-20T08:03:43;8.32;;;2.17;;
35689;SDS011;26977;44.830;-0.674;2022-11-20T08:06:09;8.70;;;2.50;;
35689;SDS011;26977;44.830;-0.674;2022-11-20T08:08:34;5.20;;;2.13;;
35689;SDS011;26977;44.830;-0.674;2022-11-20T08:11:00;6.07;;;2.00;;
35689;SDS011;26977;44.830;-0.674;2022-11-20T08:13:44;6.65;;;2.28;;
35689;SDS011;26977;44.830;-0.674;2022-11-20T08:16:28;11.35;;;2.78;;
35689;SDS011;26977;44.830;-0.674;2022-11-20T08:18:54;8.18;;;2.33;;
35689;SDS011;26977;44.830;-0.674;2022-11-20T08:21:20;8.32;;;2.63;;
35689;SDS011;26977;44.830;-0.674;2022-11-20T08:23:46;7.88;;;2.55;;
35689;SDS011;26977;44.830;-0.674;2022-11-20T08:26:11;7.60;;;2.50;;
35689;SDS011;26977;44.830;-0.674;2022-11-20T08:28:37;10.07;;;2.55;;
35689;SDS011;26977;44.830;-0.674;2022-11-20T08:31:04;6.43;;;2.22;;
35689;SDS011;26977;44.830;-0.674;2022-11-20T08:33:30;10.25;;;2.95;;
35689;SDS011;26977;44.830;-0.674;2022-11-20T08:36:02;5.88;;;2.63;;
35689;SDS011;26977;44.830;-0.674;2022-11-20T08:38:29;9.07;;;3.05;;
35689;SDS011;26977;44.830;-0.674;2022-11-20T08:41:00;9.02;;;3.05;;
35689;SDS011;26977;44.830;-0.674;2022-11-20T08:43:46;9.18;;;3.08;;
35689;SDS011;26977;44.830;-0.674;2022-11-20T08:46:12;8.57;;;2.38;;
35689;SDS011;26977;44.830;-0.674;2022-11-20T08:48:38;8.25;;;3.38;;
35689;SDS011;26977;44.830;-0.674;2022-11-20T08:51:04;14.25;;;2.90;;
35689;SDS011;26977;44.830;-0.674;2022-11-20T08:53:30;6.90;;;3.25;;
35689;SDS011;26977;44.830;-0.674;2022-11-20T08:55:56;9.93;;;3.22;;
35689;SDS011;26977;44.830;-0.674;2022-11-20T08:58:23;12.85;;;3.60;;
35689;SDS011;26977;44.830;-0.674;2022-11-20T09:00:49;8.57;;;3.40;;
35689;SDS011;26977;44.830;-0.674;2022-11-20T09:03:14;11.07;;;4.10;;
35689;SDS011;26977;44.830;-0.674;2022-11-20T09:05:40;8.95;;;4.18;;
35689;SDS011;26977;44.830;-0.674;2022-11-20T09:08:06;11.77;;;3.78;;
35689;SDS011;26977;44.830;-0.674;2022-11-20T09:10:31;7.93;;;3.50;;
35689;SDS011;26977;44.830;-0.674;2022-11-20T09:12:57;14.50;;;3.80;;
35689;SDS011;26977;44.830;-0.674;2022-11-20T09:15:24;11.45;;;3.83;;
35689;SDS011;26977;44.830;-0.674;2022-11-20T09:17:52;12.60;;;3.30;;
35689;SDS011;26977;44.830;-0.674;2022-11-20T09:20:21;13.30;;;3.60;;
35689;SDS011;26977;44.830;-0.674;2022-11-20T09:22:47;11.13;;;4.13;;
35689;SDS011;26977;44.830;-0.674;2022-11-20T09:25:13;12.20;;;2.90;;
35689;SDS011;26977;44.830;-0.674;2022-11-20T09:27:39;15.20;;;3.10;;
35689;SDS011;26977;44.830;-0.674;2022-11-20T09:30:06;16.38;;;3.00;;
35689;SDS011;26977;44.830;-0.674;2022-11-20T09:32:32;13.18;;;3.03;;
35689;SDS011;26977;44.830;-0.674;2022-11-20T09:34:58;8.40;;;2.60;;
35689;SDS011;26977;44.830;-0.674;2022-11-20T09:37:24;11.68;;;2.78;;
35689;SDS011;26977;44.830;-0.674;2022-11-20T09:39:50;9.63;;;2.60;;
35689;SDS011;26977;44.830;-0.674;2022-11-20T09:53:04;7.95;;;2.35;;
35689;SDS011;26977;44.830;-0.674;2022-11-20T09:57:59;14.00;;;2.53;;
35689;SDS011;26977;44.830;-0.674;2022-11-20T10:00:25;5.20;;;1.95;;
35689;SDS011;26977;44.830;-0.674;2022-11-20T10:02:55;9.73;;;2.58;;
35689;SDS011;26977;44.830;-0.674;2022-11-20T10:05:52;11.73;;;3.45;;
35689;SDS011;26977;44.830;-0.674;2022-11-20T10:11:03;12.13;;;2.95;;
35689;SDS011;26977;44.830;-0.674;2022-11-20T10:28:04;10.43;;;1.92;;
35689;SDS011;26977;44.830;-0.674;2022-11-20T10:30:16;10.38;;;2.22;;
35689;SDS011;26977;44.830;-0.674;2022-11-20T10:32:52;9.00;;;2.67;;
35689;SDS011;26977;44.830;-0.674;2022-11-20T10:35:35;8.02;;;2.50;;
35689;SDS011;26977;44.830;-0.674;2022-11-20T10:38:25;13.93;;;3.03;;
35689;SDS011;26977;44.830;-0.674;2022-11-20T10:41:01;7.75;;;2.72;;
35689;SDS011;26977;44.830;-0.674;2022-11-20T10:44:10;11.05;;;2.83;;
35689;SDS011;26977;44.830;-0.674;2022-11-20T10:47:18;8.85;;;2.60;;
35689;SDS011;26977;44.830;-0.674;2022-11-20T10:49:45;9.55;;;2.70;;
35689;SDS011;26977;44.830;-0.674;2022-11-20T10:54:51;8.50;;;2.35;;
35689;SDS011;26977;44.830;-0.674;2022-11-20T11:00:02;10.30;;;3.00;;
35689;SDS011;26977;44.830;-0.674;2022-11-20T11:02:32;5.30;;;1.77;;
35689;SDS011;26977;44.830;-0.674;2022-11-20T11:05:14;13.25;;;2.38;;
35689;SDS011;26977;44.830;-0.674;2022-11-20T11:07:46;10.95;;;2.42;;
35689;SDS011;26977;44.830;-0.674;2022-11-20T11:11:02;10.23;;;2.30;;
35689;SDS011;26977;44.830;-0.674;2022-11-20T11:13:20;11.23;;;2.83;;
35689;SDS011;26977;44.830;-0.674;2022-11-20T11:15:46;14.60;;;3.22;;
35689;SDS011;26977;44.830;-0.674;2022-11-20T11:18:22;11.95;;;2.13;;
35689;SDS011;26977;44.830;-0.674;2022-11-20T11:20:52;12.13;;;2.38;;
35689;SDS011;26977;44.830;-0.674;2022-11-20T11:23:26;9.88;;;2.25;;
35689;SDS011;26977;44.830;-0.674;2022-11-20T11:25:57;12.20;;;2.20;;
35689;SDS011;26977;44.830;-0.674;2022-11-20T11:28:24;14.30;;;2.78;;
35689;SDS011;26977;44.830;-0.674;2022-11-20T11:30:52;18.05;;;2.38;;
35689;SDS011;26977;44.830;-0.674;2022-11-20T11:33:20;14.10;;;2.63;;
35689;SDS011;26977;44.830;-0.674;2022-11-20T11:36:02;19.48;;;3.40;;
35689;SDS011;26977;44.830;-0.674;2022-11-20T11:38:39;18.58;;;3.45;;
35689;SDS011;26977;44.830;-0.674;2022-11-20T11:41:09;18.17;;;3.55;;
35689;SDS011;26977;44.830;-0.674;2022-11-20T11:43:48;22.40;;;3.90;;
35689;SDS011;26977;44.830;-0.674;2022-11-20T11:46:49;21.83;;;4.28;;
35689;SDS011;26977;44.830;-0.674;2022-11-20T11:49:19;27.27;;;4.93;;
35689;SDS011;26977;44.830;-0.674;2022-11-20T12:00:02;21.00;;;3.20;;
35689;SDS011;26977;44.830;-0.674;2022-11-20T12:08:09;25.75;;;3.30;;
35689;SDS011;26977;44.830;-0.674;2022-11-20T12:15:58;32.35;;;3.97;;
35689;SDS011;26977;44.830;-0.674;2022-11-20T12:18:26;35.03;;;4.57;;
35689;SDS011;26977;44.830;-0.674;2022-11-20T12:23:37;30.88;;;4.70;;
35689;SDS011;26977;44.830;-0.674;2022-11-20T12:29:28;34.22;;;3.97;;
35689;SDS011;26977;44.830;-0.674;2022-11-20T12:32:00;27.80;;;4.20;;
35689;SDS011;26977;44.830;-0.674;2022-11-20T12:43:27;23.67;;;3.33;;
35689;SDS011;26977;44.830;-0.674;2022-11-20T12:46:22;32.50;;;4.28;;
35689;SDS011;26977;44.830;-0.674;2022-11-20T12:48:52;30.67;;;4.15;;
35689;SDS011;26977;44.830;-0.674;2022-11-20T13:01:56;26.30;;;4.00;;
35689;SDS011;26977;44.830;-0.674;2022-11-20T13:07:18;28.58;;;4.20;;
35689;SDS011;26977;44.830;-0.674;2022-11-20T13:09:49;26.08;;;4.22;;
35689;SDS011;26977;44.830;-0.674;2022-11-20T13:20:25;23.40;;;3.75;;
35689;SDS011;26977;44.830;-0.674;2022-11-20T13:22:52;25.83;;;3.38;;
35689;SDS011;26977;44.830;-0.674;2022-11-20T13:25:29;32.85;;;4.28;;
35689;SDS011;26977;44.830;-0.674;2022-11-20T13:27:58;27.02;;;3.20;;
35689;SDS011;26977;44.830;-0.674;2022-11-20T13:30:26;25.58;;;3.30;;
35689;SDS011;26977;44.830;-0.674;2022-11-20T13:32:57;28.90;;;3.83;;
35689;SDS011;26977;44.830;-0.674;2022-11-20T13:35:33;28.48;;;3.92;;
35689;SDS011;26977;44.830;-0.674;2022-11-20T13:40:30;26.45;;;3.17;;
35689;SDS011;26977;44.830;-0.674;2022-11-20T13:43:01;22.77;;;3.42;;
35689;SDS011;26977;44.830;-0.674;2022-11-20T13:45:56;17.20;;;3.25;;
35689;SDS011;26977;44.830;-0.674;2022-11-20T13:48:30;23.20;;;3.72;;
35689;SDS011;26977;44.830;-0.674;2022-11-20T13:56:33;26.38;;;2.70;;
35689;SDS011;26977;44.830;-0.674;2022-11-20T14:01:31;19.05;;;3.28;;
35689;SDS011;26977;44.830;-0.674;2022-11-20T14:03:57;16.73;;;2.88;;
35689;SDS011;26977;44.830;-0.674;2022-11-20T14:06:31;21.55;;;3.17;;
35689;SDS011;26977;44.830;-0.674;2022-11-20T14:08:59;22.77;;;3.35;;
35689;SDS011;26977;44.830;-0.674;2022-11-20T14:11:29;18.60;;;2.53;;
35689;SDS011;26977;44.830;-0.674;2022-11-20T14:14:04;16.00;;;2.30;;
35689;SDS011;26977;44.830;-0.674;2022-11-20T14:16:41;20.05;;;2.47;;
35689;SDS011;26977;44.830;-0.674;2022-11-20T14:22:35;16.30;;;2.05;;
35689;SDS011;26977;44.830;-0.674;2022-11-20T14:24:35;23.40;;;2.22;;
35689;SDS011;26977;44.830;-0.674;2022-11-20T14:27:16;17.20;;;2.15;;
35689;SDS011;26977;44.830;-0.674;2022-11-20T14:29:44;18.63;;;2.50;;
35689;SDS011;26977;44.830;-0.674;2022-11-20T14:32:14;19.42;;;2.72;;
35689;SDS011;26977;44.830;-0.674;2022-11-20T14:34:44;25.15;;;3.03;;
35689;SDS011;26977;44.830;-0.674;2022-11-20T14:37:13;22.02;;;3.28;;
35689;SDS011;26977;44.830;-0.674;2022-11-20T14:39:48;18.70;;;3.05;;
35689;SDS011;26977;44.830;-0.674;2022-11-20T14:44:56;21.63;;;3.13;;
35689;SDS011;26977;44.830;-0.674;2022-11-20T14:47:24;23.73;;;3.15;;
35689;SDS011;26977;44.830;-0.674;2022-11-20T14:49:52;19.88;;;2.58;;
35689;SDS011;26977;44.830;-0.674;2022-11-20T14:52:21;27.25;;;2.88;;
35689;SDS011;26977;44.830;-0.674;2022-11-20T14:54:48;22.00;;;2.83;;
35689;SDS011;26977;44.830;-0.674;2022-11-20T14:57:34;21.38;;;2.97;;
35689;SDS011;26977;44.830;-0.674;2022-11-20T15:02:31;25.55;;;3.40;;
35689;SDS011;26977;44.830;-0.674;2022-11-20T15:04:57;20.33;;;3.05;;
35689;SDS011;26977;44.830;-0.674;2022-11-20T15:07:27;19.50;;;3.03;;
35689;SDS011;26977;44.830;-0.674;2022-11-20T15:12:35;13.43;;;2.78;;
35689;SDS011;26977;44.830;-0.674;2022-11-20T15:15:03;17.15;;;2.13;;
35689;SDS011;26977;44.830;-0.674;2022-11-20T15:17:30;21.60;;;2.80;;
35689;SDS011;26977;44.830;-0.674;2022-11-20T15:19:59;19.50;;;2.58;;
35689;SDS011;26977;44.830;-0.674;2022-11-20T15:22:27;21.13;;;3.45;;
35689;SDS011;26977;44.830;-0.674;2022-11-20T15:24:53;19.20;;;3.85;;
35689;SDS011;26977;44.830;-0.674;2022-11-20T15:27:18;27.27;;;6.10;;
35689;SDS011;26977;44.830;-0.674;2022-11-20T15:29:44;33.58;;;6.30;;
35689;SDS011;26977;44.830;-0.674;2022-11-20T15:32:10;23.15;;;3.83;;
35689;SDS011;26977;44.830;-0.674;2022-11-20T15:34:35;24.35;;;4.28;;
35689;SDS011;26977;44.830;-0.674;2022-11-20T15:37:01;29.23;;;3.22;;
35689;SDS011;26977;44.830;-0.674;2022-11-20T15:39:26;23.13;;;3.28;;
35689;SDS011;26977;44.830;-0.674;2022-11-20T15:41:52;21.10;;;2.97;;
35689;SDS011;26977;44.830;-0.674;2022-11-20T15:44:18;21.77;;;3.00;;
35689;SDS011;26977;44.830;-0.674;2022-11-20T15:46:43;25.60;;;3.35;;
35689;SDS011;26977;44.830;-0.674;2022-11-20T15:49:15;19.83;;;2.47;;
35689;SDS011;26977;44.830;-0.674;2022-11-20T15:51:44;27.17;;;4.17;;
35689;SDS011;26977;44.830;-0.674;2022-11-20T15:54:12;32.33;;;3.53;;
35689;SDS011;26977;44.830;-0.674;2022-11-20T15:56:44;22.23;;;3.65;;
35689;SDS011;26977;44.830;-0.674;2022-11-20T15:59:11;25.38;;;3.33;;
35689;SDS011;26977;44.830;-0.674;2022-11-20T16:01:37;27.98;;;3.60;;
35689;SDS011;26977;44.830;-0.674;2022-11-20T16:04:04;30.45;;;3.13;;
35689;SDS011;26977;44.830;-0.674;2022-11-20T16:06:33;23.63;;;3.38;;
35689;SDS011;26977;44.830;-0.674;2022-11-20T16:08:58;23.88;;;3.38;;
35689;SDS011;26977;44.830;-0.674;2022-11-20T16:11:24;22.45;;;3.72;;
35689;SDS011;26977;44.830;-0.674;2022-11-20T16:13:50;29.30;;;3.97;;
35689;SDS011;26977;44.830;-0.674;2022-11-20T16:16:35;28.90;;;4.88;;
35689;SDS011;26977;44.830;-0.674;2022-11-20T16:19:01;26.73;;;4.15;;
35689;SDS011;26977;44.830;-0.674;2022-11-20T16:21:28;21.90;;;3.50;;
35689;SDS011;26977;44.830;-0.674;2022-11-20T16:24:00;17.08;;;3.38;;
35689;SDS011;26977;44.830;-0.674;2022-11-20T16:26:28;25.95;;;4.32;;
35689;SDS011;26977;44.830;-0.674;2022-11-20T16:28:54;28.75;;;3.95;;
35689;SDS011;26977;44.830;-0.674;2022-11-20T16:31:20;29.15;;;4.82;;